Time;durP1;ratioP1;P1;durP2;ratioP2;P2;SDS_P1;SDS_P2;PMS_P1;PMS_P2;Temp;Humidity;BMP_temperature;BMP_pressure;BME280_temperature;BME280_humidity;BME280_pressure;Samples;Min_cycle;Max_cycle;Signal;HPM_P1;HPM_P2
2021/11/25 13:11:39;;;;;;;5.42;4.40;;;;;;;7.96;92.22;99233.36;1798423;79;23414;-63
2021/11/25 13:14:15;;;;;;;6.72;4.65;;;;;;;7.68;92.26;99235.38;1758469;80;21816;-63
2021/11/25 13:16:51;;;;;;;5.08;4.58;;;;;;;7.20;92.99;99232.36;1758307;80;21204;-63
2021/11/25 13:19:20;;;;;;;5.50;5.00;;;;;;;6.83;94.67;99227.61;1758267;81;21026;-64
2021/11/25 13:21:51;;;;;;;5.85;4.60;;;;;;;6.57;97.62;99232.55;1758310;80;21006;-63
2021/11/25 13:24:33;;;;;;;6.17;5.10;;;;;;;6.28;100.00;99229.16;1758422;80;21035;-62
2021/11/25 13:27:05;;;;;;;6.30;5.30;;;;;;;6.00;100.00;99230.95;1724990;81;21497;-62
2021/11/25 13:29:47;;;;;;;6.45;4.97;;;;;;;5.75;100.00;99230.14;1724834;83;21349;-62
2021/11/25 13:32:23;;;;;;;6.47;5.47;;;;;;;5.55;100.00;99241.59;1724863;82;20891;-62
2021/11/25 13:34:54;;;;;;;7.03;5.35;;;;;;;5.26;100.00;99234.17;1724759;81;21465;-63
2021/11/25 13:37:26;;;;;;;5.85;5.25;;;;;;;4.99;100.00;99224.10;1724400;83;20939;-62
2021/11/25 13:39:59;;;;;;;6.58;5.85;;;;;;;4.81;100.00;99222.91;1725045;81;21695;-63
2021/11/25 13:42:39;;;;;;;6.22;5.37;;;;;;;4.69;100.00;99222.22;1724773;82;21181;-62
2021/11/25 13:45:09;;;;;;;6.55;5.92;;;;;;;4.61;100.00;99215.98;1724440;81;20920;-63
2021/11/25 13:47:44;;;;;;;8.28;5.67;;;;;;;4.49;100.00;99215.75;1724763;81;20958;-62
2021/11/25 13:50:15;;;;;;;8.20;5.60;;;;;;;4.42;100.00;99210.84;1724767;83;20966;-62
2021/11/25 13:52:52;;;;;;;7.78;5.53;;;;;;;4.31;100.00;99202.80;1724818;83;20855;-62
2021/11/25 13:55:27;;;;;;;6.87;5.45;;;;;;;4.20;100.00;99208.20;1725140;83;21541;-63
2021/11/25 13:57:58;;;;;;;6.25;5.00;;;;;;;4.08;100.00;99202.30;1724731;81;21346;-62
2021/11/25 14:00:33;;;;;;;8.65;5.60;;;;;;;4.00;100.00;99203.00;1725033;82;20915;-63
2021/11/25 14:03:08;;;;;;;8.23;5.45;;;;;;;3.92;100.00;99200.23;1724731;83;20971;-63
2021/11/25 14:05:44;;;;;;;8.55;5.62;;;;;;;3.83;100.00;99197.86;1724814;83;21655;-62
2021/11/25 14:08:18;;;;;;;7.05;5.37;;;;;;;3.76;100.00;99208.13;1724861;81;21346;-63
2021/11/25 14:10:47;;;;;;;7.10;5.28;;;;;;;3.70;100.00;99204.50;1716735;81;21403;-62
2021/11/25 14:13:16;;;;;;;6.30;5.60;;;;;;;3.65;100.00;99199.61;1709376;84;20921;-62
2021/11/25 14:15:45;;;;;;;6.78;5.53;;;;;;;3.61;100.00;99197.78;1709711;83;20888;-63
2021/11/25 14:18:14;;;;;;;6.97;6.05;;;;;;;3.54;100.00;99202.41;1709413;82;21430;-63
2021/11/25 14:20:47;;;;;;;7.30;5.80;;;;;;;3.42;100.00;99197.38;1711919;83;21828;-62
2021/11/25 14:23:17;;;;;;;8.23;6.45;;;;;;;3.37;100.00;99188.98;1709110;84;20896;-63
2021/11/25 14:25:47;;;;;;;8.40;6.37;;;;;;;3.31;100.00;99193.64;1709146;82;21415;-63
2021/11/25 14:31:24;;;;;;;8.70;6.20;;;;;;;3.16;100.00;99178.48;1709018;84;21454;-63
2021/11/25 14:34:00;;;;;;;8.13;6.35;;;;;;;3.08;100.00;99176.55;1708852;84;21268;-63
2021/11/25 14:36:31;;;;;;;8.88;6.37;;;;;;;3.01;100.00;99177.25;1709255;82;20966;-64
2021/11/25 14:39:02;;;;;;;7.43;6.47;;;;;;;2.89;100.00;99189.55;1709240;83;21608;-63
2021/11/25 14:41:33;;;;;;;7.05;6.35;;;;;;;2.79;100.00;99180.59;1709101;84;21038;-63
2021/11/25 14:44:11;;;;;;;8.03;6.10;;;;;;;2.76;100.00;99174.01;1744702;80;21014;-62
2021/11/25 14:46:41;;;;;;;10.55;6.60;;;;;;;2.72;100.00;99171.28;1744919;82;21367;-63
2021/11/25 14:49:24;;;;;;;8.25;6.12;;;;;;;2.67;100.00;99165.08;1744591;80;20908;-63
2021/11/25 14:52:18;;;;;;;8.28;6.22;;;;;;;2.66;100.00;99167.23;1745378;80;20941;-63
2021/11/25 14:55:12;;;;;;;7.87;6.55;;;;;;;2.58;100.00;99163.55;1744588;80;20876;-63
2021/11/25 14:57:42;;;;;;;7.47;6.12;;;;;;;2.55;100.00;99157.84;1745101;80;20885;-63
2021/11/25 15:00:14;;;;;;;6.85;6.05;;;;;;;2.55;100.00;99156.95;1744731;82;21093;-63
2021/11/25 15:02:45;;;;;;;8.40;6.15;;;;;;;2.51;100.00;99152.98;1744879;82;20944;-63
2021/11/25 15:05:16;;;;;;;7.85;7.00;;;;;;;2.46;100.00;99160.20;1744949;80;20932;-63
2021/11/25 15:08:01;;;;;;;8.73;6.97;;;;;;;2.41;100.00;99152.70;1744806;80;28569;-63
2021/11/25 15:10:34;;;;;;;9.10;7.03;;;;;;;2.41;100.00;99150.98;1708359;82;21494;-63
2021/11/25 15:13:03;;;;;;;7.40;6.25;;;;;;;2.40;100.00;99145.31;1700554;83;22022;-63
2021/11/25 15:15:32;;;;;;;10.55;7.30;;;;;;;2.40;100.00;99150.52;1709014;82;20963;-63
2021/11/25 15:18:01;;;;;;;13.58;7.20;;;;;;;2.37;100.00;99144.35;1744665;80;20909;-62
2021/11/25 15:20:29;;;;;;;8.78;7.72;;;;;;;2.35;100.00;99137.77;1744987;80;21503;-63
2021/11/25 15:22:58;;;;;;;9.70;7.33;;;;;;;2.33;100.00;99130.77;1744636;81;20920;-63
2021/11/25 15:25:26;;;;;;;9.88;7.62;;;;;;;2.33;100.00;99134.25;1745030;81;21138;-63
2021/11/25 15:28:00;;;;;;;9.85;8.03;;;;;;;2.34;100.00;99134.70;1744559;80;20877;-62
2021/11/25 15:30:25;;;;;;;9.75;7.40;;;;;;;2.32;100.00;99129.00;1744480;80;20869;-62
2021/11/25 15:32:55;;;;;;;11.50;7.35;;;;;;;2.29;100.00;99135.01;1744603;80;21423;-63
2021/11/25 15:35:23;;;;;;;10.80;7.45;;;;;;;2.32;100.00;99129.00;1744604;81;20931;-63
2021/11/25 15:37:52;;;;;;;11.43;8.00;;;;;;;2.30;100.00;99125.05;1744428;80;21471;-70
2021/11/25 15:40:21;;;;;;;10.68;7.90;;;;;;;2.31;100.00;99125.94;1744505;81;21534;-68
2021/11/25 15:42:49;;;;;;;10.85;7.95;;;;;;;2.31;100.00;99125.94;1744563;80;20944;-67
2021/11/25 15:45:18;;;;;;;12.55;8.38;;;;;;;2.27;100.00;99129.30;1751376;79;21074;-65
2021/11/25 15:47:47;;;;;;;13.68;8.93;;;;;;;2.18;100.00;99123.44;1745367;81;21444;-64
2021/11/25 15:50:17;;;;;;;14.23;9.28;;;;;;;2.15;100.00;99116.84;1736919;80;21198;-64
2021/11/25 15:52:45;;;;;;;13.03;9.58;;;;;;;2.10;100.00;99120.62;1739896;81;20869;-65
2021/11/25 15:55:13;;;;;;;15.20;9.90;;;;;;;2.08;100.00;99113.20;1744761;80;21025;-62
2021/11/25 15:57:42;;;;;;;12.73;9.38;;;;;;;2.08;100.00;99117.11;1744545;80;21431;-67
2021/11/25 16:00:11;;;;;;;13.72;9.75;;;;;;;2.03;100.00;99112.62;1744811;80;20964;-65
2021/11/25 16:02:44;;;;;;;17.57;10.03;;;;;;;2.02;100.00;99107.84;1744755;80;21154;-65
2021/11/25 16:05:12;;;;;;;13.03;9.18;;;;;;;1.99;100.00;99109.05;1744732;80;21518;-66
2021/11/25 16:07:41;;;;;;;11.75;8.75;;;;;;;1.94;100.00;99106.75;1744561;80;21513;-66
2021/11/25 16:10:10;;;;;;;11.10;8.53;;;;;;;1.91;100.00;99105.37;1744499;80;21062;-66
2021/11/25 16:12:41;;;;;;;13.95;9.68;;;;;;;1.85;100.00;99103.86;1744672;80;21027;-66
2021/11/25 16:15:09;;;;;;;15.20;9.70;;;;;;;1.79;100.00;99104.58;1744559;81;21993;-65
2021/11/25 16:17:37;;;;;;;13.08;9.23;;;;;;;1.71;100.00;99100.88;1744547;80;20885;-65
2021/11/25 16:20:08;;;;;;;12.30;8.83;;;;;;;1.67;100.00;99097.73;1708697;82;21435;-61
2021/11/25 16:22:36;;;;;;;12.30;9.53;;;;;;;1.60;100.00;99098.83;1744493;80;20889;-61
2021/11/25 16:25:08;;;;;;;12.20;8.95;;;;;;;1.51;100.00;99094.24;1744565;80;20987;-62
2021/11/25 16:27:38;;;;;;;13.32;9.53;;;;;;;1.46;100.00;99091.52;1744593;80;20857;-64
2021/11/25 16:30:07;;;;;;;15.38;10.15;;;;;;;1.45;100.00;99095.37;1744437;80;21456;-64
2021/11/25 16:32:36;;;;;;;14.83;10.93;;;;;;;1.43;100.00;99102.23;1744589;81;20896;-64
2021/11/25 16:35:05;;;;;;;16.20;11.30;;;;;;;1.39;100.00;99103.84;1744409;82;20972;-64
2021/11/25 16:37:34;;;;;;;15.72;11.08;;;;;;;1.39;100.00;99101.23;1744567;81;20845;-65
2021/11/25 16:40:03;;;;;;;15.15;11.25;;;;;;;1.37;100.00;99105.51;1774684;80;21510;-62
2021/11/25 16:42:31;;;;;;;16.02;11.50;;;;;;;1.39;100.00;99106.85;1760040;80;20888;-62
2021/11/25 16:44:59;;;;;;;15.28;11.43;;;;;;;1.39;100.00;99099.05;1745229;80;21063;-64
2021/11/25 16:48:13;;;;;;;21.23;12.63;;;;;;;1.41;100.00;99093.48;1727909;82;20971;-64
2021/11/25 16:50:09;;;;;;;17.57;12.30;;;;;;;1.38;100.00;99096.88;1713618;82;21624;-64
2021/11/25 16:52:43;;;;;;;17.82;12.18;;;;;;;1.35;100.00;99094.61;1714894;83;21152;-63
2021/11/25 16:55:19;;;;;;;16.27;11.65;;;;;;;1.32;100.00;99100.59;1715005;82;20983;-64
2021/11/25 16:57:55;;;;;;;17.00;12.30;;;;;;;1.32;100.00;99099.71;1713660;82;21478;-66
2021/11/25 17:00:31;;;;;;;20.50;11.93;;;;;;;1.33;100.00;99094.98;1714786;82;20991;-65
2021/11/25 17:03:03;;;;;;;17.25;12.45;;;;;;;1.32;100.00;99094.09;1714906;82;21545;-62
2021/11/25 17:05:32;;;;;;;15.10;11.45;;;;;;;1.32;100.00;99095.81;1714627;82;21157;-63
2021/11/25 17:08:02;;;;;;;16.67;11.60;;;;;;;1.32;100.00;99093.22;1739608;80;21007;-66
2021/11/25 17:10:30;;;;;;;16.85;11.33;;;;;;;1.35;100.00;99089.41;1738400;80;20987;-65
2021/11/25 17:12:58;;;;;;;16.40;11.30;;;;;;;1.40;100.00;99090.42;1743640;80;20956;-64
2021/11/25 17:15:27;;;;;;;14.40;11.12;;;;;;;1.45;100.00;99093.65;1738283;80;21513;-65
2021/11/25 17:17:55;;;;;;;14.00;10.68;;;;;;;1.50;100.00;99090.77;1742403;80;21176;-64
2021/11/25 17:20:24;;;;;;;14.80;10.65;;;;;;;1.54;100.00;99093.03;1739811;80;20892;-64
2021/11/25 17:22:52;;;;;;;14.15;10.88;;;;;;;1.60;100.00;99093.20;1739910;81;20970;-64
2021/11/25 17:25:21;;;;;;;13.75;10.63;;;;;;;1.64;100.00;99096.77;1743434;80;20966;-65
2021/11/25 17:27:50;;;;;;;15.70;10.50;;;;;;;1.67;100.00;99093.84;1745320;80;22080;-64
2021/11/25 17:30:19;;;;;;;15.18;10.58;;;;;;;1.68;100.00;99090.81;1739191;80;21152;-64
2021/11/25 17:32:47;;;;;;;14.07;9.25;;;;;;;1.71;100.00;99082.68;1743653;80;21590;-64
2021/11/25 17:35:14;;;;;;;13.38;9.78;;;;;;;1.75;100.00;99084.53;1730851;80;20929;-64
2021/11/25 17:37:42;;;;;;;12.82;9.43;;;;;;;1.80;100.00;99081.63;1738735;82;20962;-64
2021/11/25 17:40:11;;;;;;;11.38;8.48;;;;;;;1.85;100.00;99085.23;1743608;80;21054;-62
2021/11/25 17:42:41;;;;;;;15.15;9.60;;;;;;;1.88;100.00;99085.74;1742755;80;20932;-62
2021/11/25 17:45:09;;;;;;;11.50;8.10;;;;;;;1.92;100.00;99079.81;1744164;80;21043;-62
2021/11/25 17:47:39;;;;;;;11.78;8.38;;;;;;;1.99;100.00;99083.04;1743932;80;21384;-62
2021/11/25 17:50:10;;;;;;;11.45;9.00;;;;;;;2.04;100.00;99076.23;1738901;80;20873;-62
2021/11/25 17:52:44;;;;;;;10.53;8.83;;;;;;;2.05;100.00;99075.81;1742550;81;21035;-62
2021/11/25 17:55:12;;;;;;;13.00;9.78;;;;;;;2.06;100.00;99072.38;1739820;80;21141;-62
2021/11/25 17:57:40;;;;;;;11.90;9.23;;;;;;;2.08;100.00;99062.47;1733454;81;20977;-63
2021/11/25 18:00:09;;;;;;;12.05;9.10;;;;;;;2.11;100.00;99060.36;1704670;82;21046;-62
2021/11/25 18:02:42;;;;;;;12.98;9.40;;;;;;;2.12;100.00;99053.02;1704929;82;21061;-61
2021/11/25 18:05:10;;;;;;;12.80;9.85;;;;;;;2.12;100.00;99044.80;1704455;82;21110;-62
2021/11/25 18:07:38;;;;;;;11.48;8.80;;;;;;;2.14;100.00;99043.53;1685173;83;21176;-62
2021/11/25 18:10:30;;;;;;;12.55;9.53;;;;;;;2.15;100.00;99040.08;1738122;80;20890;-62
2021/11/25 18:12:59;;;;;;;12.80;7.85;;;;;;;2.18;100.00;99049.27;1743495;81;20997;-64
2021/11/25 18:15:28;;;;;;;12.68;9.80;;;;;;;2.19;100.00;99045.41;1747238;81;20950;-61
2021/11/25 18:17:58;;;;;;;13.30;9.50;;;;;;;2.21;100.00;99045.02;1749505;80;21429;-62
2021/11/25 18:20:28;;;;;;;13.50;9.85;;;;;;;2.24;100.00;99036.83;1710305;83;20896;-63
2021/11/25 18:22:57;;;;;;;15.25;10.35;;;;;;;2.27;100.00;99031.28;1706512;84;20867;-65
2021/11/25 18:25:26;;;;;;;15.35;10.32;;;;;;;2.29;100.00;99025.69;1717371;82;20974;-63
2021/11/25 18:27:55;;;;;;;15.78;11.00;;;;;;;2.31;100.00;99020.52;1673367;83;21058;-63
2021/11/25 18:30:23;;;;;;;13.88;10.08;;;;;;;2.33;100.00;99022.73;1752778;80;21032;-64
2021/11/25 18:32:52;;;;;;;13.80;11.05;;;;;;;2.36;100.00;99013.28;1755589;80;21137;-68
2021/11/25 18:35:19;;;;;;;14.47;10.35;;;;;;;2.37;100.00;99016.38;1755567;80;20870;-62
2021/11/25 18:37:48;;;;;;;13.10;10.85;;;;;;;2.38;100.00;99017.26;1760331;80;20941;-62
2021/11/25 18:40:16;;;;;;;14.58;10.32;;;;;;;2.39;100.00;99011.20;1761310;80;20959;-63
2021/11/25 18:42:43;;;;;;;16.75;10.25;;;;;;;2.41;100.00;99005.62;1784421;79;20895;-61
2021/11/25 18:45:14;;;;;;;12.88;10.13;;;;;;;2.44;100.00;99003.97;1784674;79;21121;-61
2021/11/25 18:47:43;;;;;;;13.13;10.60;;;;;;;2.47;100.00;99010.55;1784695;79;21552;-60
2021/11/25 18:50:11;;;;;;;14.05;10.45;;;;;;;2.47;100.00;99005.76;1784277;79;21568;-64
2021/11/25 18:52:43;;;;;;;15.80;10.30;;;;;;;2.48;100.00;99001.01;1784299;79;20930;-65
2021/11/25 18:55:12;;;;;;;15.75;10.05;;;;;;;2.51;100.00;98999.78;1784391;79;21477;-63
2021/11/25 18:57:43;;;;;;;13.62;9.88;;;;;;;2.53;100.00;98997.67;1784656;79;21101;-63
2021/11/25 19:00:13;;;;;;;15.15;11.10;;;;;;;2.55;100.00;98999.43;1784295;80;20923;-65
2021/11/25 19:02:42;;;;;;;13.95;10.00;;;;;;;2.56;100.00;98998.58;1784671;79;20935;-63
2021/11/25 19:05:11;;;;;;;15.28;10.72;;;;;;;2.56;100.00;98995.98;1784316;79;20950;-62
2021/11/25 19:07:39;;;;;;;16.50;11.50;;;;;;;2.58;100.00;98995.17;1782350;80;21453;-65
2021/11/25 19:10:08;;;;;;;16.73;10.10;;;;;;;2.59;100.00;99003.44;1755166;80;21138;-61
2021/11/25 19:12:39;;;;;;;15.55;11.00;;;;;;;2.61;100.00;98994.36;1771925;80;20871;-62
2021/11/25 19:15:08;;;;;;;14.28;10.53;;;;;;;2.63;100.00;99001.78;1772677;80;20986;-62
2021/11/25 19:17:36;;;;;;;15.00;10.98;;;;;;;2.65;100.00;98994.47;1764418;80;20892;-62
2021/11/25 19:20:06;;;;;;;12.73;9.90;;;;;;;2.69;100.00;98992.81;1774421;80;20966;-62
2021/11/25 19:22:36;;;;;;;14.65;10.32;;;;;;;2.72;100.00;98995.48;1753322;80;22012;-62
2021/11/25 19:25:06;;;;;;;14.93;10.45;;;;;;;2.72;100.00;99000.27;1774386;80;20883;-65
2021/11/25 19:27:35;;;;;;;12.70;10.82;;;;;;;2.77;100.00;98986.05;1763714;80;21508;-65
2021/11/25 19:30:05;;;;;;;12.95;10.13;;;;;;;2.80;100.00;98974.39;1761140;80;20902;-64
2021/11/25 19:32:34;;;;;;;13.00;9.08;;;;;;;2.82;100.00;98974.88;1754046;80;20946;-62
2021/11/25 19:35:04;;;;;;;12.37;10.50;;;;;;;2.84;100.00;98974.52;1748499;82;21196;-63
2021/11/25 19:37:32;;;;;;;14.55;10.60;;;;;;;2.84;100.00;98978.42;1748642;82;20913;-61
2021/11/25 19:40:06;;;;;;;13.15;9.98;;;;;;;2.84;100.00;98978.42;1749987;81;20882;-61
2021/11/25 19:42:35;;;;;;;12.80;9.78;;;;;;;2.86;100.00;98974.55;1752667;80;20916;-61
2021/11/25 19:45:05;;;;;;;13.62;10.18;;;;;;;2.86;100.00;98974.55;1760009;81;20895;-62
2021/11/25 19:47:35;;;;;;;13.35;10.28;;;;;;;2.84;100.00;98981.03;1761247;81;20894;-61
2021/11/25 19:50:05;;;;;;;13.78;9.48;;;;;;;2.80;100.00;98967.45;1761036;81;20861;-62
2021/11/25 19:52:35;;;;;;;14.25;10.05;;;;;;;2.80;100.00;98972.66;1761222;81;20945;-61
2021/11/25 19:55:06;;;;;;;14.23;9.20;;;;;;;2.78;100.00;98970.45;1761177;81;21488;-64
2021/11/25 19:57:34;;;;;;;13.10;9.43;;;;;;;2.75;100.00;98972.11;1753291;81;20989;-64
2021/11/25 20:00:05;;;;;;;15.90;9.43;;;;;;;2.73;100.00;98954.27;1758689;81;21062;-61
2021/11/25 20:02:35;;;;;;;13.70;10.30;;;;;;;2.70;100.00;98958.98;1707227;82;21411;-63
2021/11/25 20:05:04;;;;;;;13.40;10.28;;;;;;;2.71;100.00;98963.77;1691352;83;21022;-63
2021/11/25 20:07:33;;;;;;;15.63;9.08;;;;;;;2.70;100.00;98955.50;1695924;83;21561;-63
2021/11/25 20:10:03;;;;;;;13.85;9.65;;;;;;;2.71;100.00;98955.53;1703401;84;21610;-62
2021/11/25 20:12:32;;;;;;;19.70;8.68;;;;;;;2.73;100.00;98945.15;1720776;82;21127;-62
2021/11/25 20:15:00;;;;;;;14.95;9.75;;;;;;;2.75;100.00;98948.24;1718194;81;20898;-65
2021/11/25 20:17:28;;;;;;;13.05;8.93;;;;;;;2.73;100.00;98940.81;1724455;82;21423;-62
2021/11/25 20:19:56;;;;;;;10.45;8.28;;;;;;;2.73;100.00;98930.40;1716723;82;21478;-63
2021/11/25 20:22:24;;;;;;;10.72;8.48;;;;;;;2.74;100.00;98928.25;1716340;83;21018;-62
2021/11/25 20:24:54;;;;;;;11.60;8.75;;;;;;;2.73;100.00;98924.31;1691770;83;21962;-63
2021/11/25 20:27:22;;;;;;;10.00;8.20;;;;;;;2.68;100.00;98922.91;1752000;81;20966;-62
2021/11/25 20:29:50;;;;;;;11.43;8.53;;;;;;;2.66;100.00;98915.91;1758709;80;20883;-62
2021/11/25 20:32:20;;;;;;;11.70;8.28;;;;;;;2.64;100.00;98915.88;1758539;80;21393;-63
2021/11/25 20:34:49;;;;;;;11.50;7.85;;;;;;;2.66;100.00;98912.01;1758142;81;21393;-61
2021/11/25 20:37:17;;;;;;;12.00;8.13;;;;;;;2.69;100.00;98905.56;1757923;81;21796;-63
2021/11/25 20:39:46;;;;;;;11.45;8.73;;;;;;;2.72;100.00;98905.63;1757806;81;21358;-61
2021/11/25 20:42:20;;;;;;;10.82;8.50;;;;;;;2.74;100.00;98911.75;1757845;81;20945;-62
2021/11/25 20:44:44;;;;;;;15.05;8.43;;;;;;;2.74;100.00;98909.14;1757283;81;20913;-61
2021/11/25 20:47:12;;;;;;;11.22;8.15;;;;;;;2.74;100.00;98903.51;1753080;81;20939;-62
2021/11/25 20:49:41;;;;;;;11.53;7.55;;;;;;;2.78;100.00;98901.84;1757847;81;21117;-61
2021/11/25 20:52:09;;;;;;;11.45;8.18;;;;;;;2.78;100.00;98895.33;1757725;81;20885;-61
2021/11/25 20:54:39;;;;;;;12.18;8.50;;;;;;;2.78;100.00;98896.21;1757803;81;20947;-60
2021/11/25 20:57:07;;;;;;;13.80;8.65;;;;;;;2.78;100.00;98903.14;1757748;80;21009;-63
2021/11/25 20:59:35;;;;;;;8.98;7.55;;;;;;;2.75;100.00;98893.55;1757856;81;20978;-60
2021/11/25 21:02:05;;;;;;;9.88;8.10;;;;;;;2.76;100.00;98895.73;1757784;81;21157;-60
2021/11/25 21:04:33;;;;;;;9.73;8.25;;;;;;;2.75;100.00;98896.58;1757927;81;20895;-62
2021/11/25 21:07:02;;;;;;;10.03;8.18;;;;;;;2.74;100.00;98888.30;1757719;81;21021;-61
2021/11/25 21:09:30;;;;;;;9.83;8.43;;;;;;;2.71;100.00;98882.61;1757782;80;20994;-60
2021/11/25 21:11:59;;;;;;;10.53;8.03;;;;;;;2.70;100.00;98877.37;1757683;81;21482;-61
2021/11/25 21:14:27;;;;;;;10.28;8.25;;;;;;;2.67;100.00;98869.50;1757809;81;21164;-63
2021/11/25 21:16:55;;;;;;;9.48;7.42;;;;;;;2.64;100.00;98880.73;1758231;80;21489;-62
2021/11/25 21:19:23;;;;;;;10.23;7.97;;;;;;;2.64;100.00;98874.64;1757792;81;20919;-60
2021/11/25 21:21:51;;;;;;;11.00;8.08;;;;;;;2.63;100.00;98875.06;1749438;81;20935;-62
2021/11/25 21:24:19;;;;;;;13.08;8.93;;;;;;;2.61;100.00;98869.38;1700400;83;21445;-60
2021/11/25 21:26:49;;;;;;;12.30;8.65;;;;;;;2.61;100.00;98865.46;1700512;83;21446;-62
2021/11/25 21:29:17;;;;;;;11.63;8.38;;;;;;;2.63;100.00;98863.77;1700302;83;21446;-63
2021/11/25 21:31:45;;;;;;;13.13;8.33;;;;;;;2.62;100.00;98862.02;1700670;83;21513;-60
2021/11/25 21:34:13;;;;;;;11.45;8.53;;;;;;;2.59;100.00;98861.52;1700465;83;20979;-62
2021/11/25 21:36:42;;;;;;;11.20;8.88;;;;;;;2.57;100.00;98858.44;1700419;83;20950;-63
2021/11/25 21:39:11;;;;;;;11.08;8.38;;;;;;;2.50;100.00;98850.92;1700567;83;21167;-61
2021/11/25 21:41:40;;;;;;;13.85;8.63;;;;;;;2.48;100.00;98856.09;1700736;83;20978;-63
2021/11/25 21:44:09;;;;;;;10.63;8.70;;;;;;;2.44;100.00;98850.37;1724843;82;21027;-61
2021/11/25 21:46:37;;;;;;;11.63;8.70;;;;;;;2.42;100.00;98845.55;1702572;83;20903;-61
2021/11/25 21:49:05;;;;;;;11.95;8.83;;;;;;;2.40;100.00;98848.55;1717254;82;20908;-61
2021/11/25 21:51:34;;;;;;;10.85;8.35;;;;;;;2.36;100.00;98831.08;1733327;82;21971;-62
2021/11/25 21:54:03;;;;;;;12.18;8.63;;;;;;;2.33;100.00;98834.91;1700547;83;21501;-63
2021/11/25 21:56:33;;;;;;;12.20;9.50;;;;;;;2.29;100.00;98826.59;1700474;83;20994;-61
2021/11/25 21:59:07;;;;;;;11.63;7.90;;;;;;;2.27;100.00;98834.78;1700404;83;21687;-61
2021/11/25 22:01:36;;;;;;;11.15;8.55;;;;;;;2.27;100.00;98846.50;1702864;82;21508;-62
2021/11/25 22:04:05;;;;;;;14.03;8.63;;;;;;;2.28;100.00;98851.28;1700475;83;21117;-61
2021/11/25 22:06:34;;;;;;;10.63;8.30;;;;;;;2.28;100.00;98854.76;1710546;82;20915;-63
2021/11/25 22:09:02;;;;;;;12.58;8.03;;;;;;;2.31;100.00;98848.74;1717722;83;21018;-62
2021/11/25 22:11:31;;;;;;;11.22;7.58;;;;;;;2.31;100.00;98843.53;1734791;82;21019;-63
2021/11/25 22:14:01;;;;;;;10.32;7.90;;;;;;;2.31;100.00;98836.61;1691054;82;20911;-60
2021/11/25 22:16:30;;;;;;;10.65;8.20;;;;;;;2.29;100.00;98827.01;1690451;84;21198;-62
2021/11/25 22:19:03;;;;;;;10.20;8.35;;;;;;;2.22;100.00;98818.20;1664745;84;21478;-61
2021/11/25 22:21:45;;;;;;;11.40;8.38;;;;;;;2.17;100.00;98823.72;1686241;84;20884;-62
2021/11/25 22:26:50;;;;;;;13.45;8.53;;;;;;;2.11;100.00;98814.06;1689568;83;21455;-62
2021/11/25 22:29:19;;;;;;;13.22;8.48;;;;;;;2.10;100.00;98814.03;1689546;83;21160;-60
2021/11/25 22:31:49;;;;;;;11.93;8.18;;;;;;;2.03;100.00;98803.91;1689607;83;21471;-60
2021/11/25 22:34:17;;;;;;;10.38;8.03;;;;;;;2.01;100.00;98802.13;1689488;83;20913;-61
2021/11/25 22:36:46;;;;;;;10.48;7.55;;;;;;;2.00;100.00;98801.66;1689669;83;20896;-60
2021/11/25 22:39:16;;;;;;;10.75;7.70;;;;;;;2.00;100.00;98798.64;1689435;83;21031;-61
2021/11/25 22:41:46;;;;;;;10.38;8.25;;;;;;;1.97;100.00;98797.27;1689466;83;21422;-62
2021/11/25 22:44:19;;;;;;;12.20;8.28;;;;;;;1.95;100.00;98791.16;1689533;83;21439;-62
2021/11/25 22:46:50;;;;;;;10.63;7.78;;;;;;;1.95;100.00;98789.86;1684795;83;21505;-64
2021/11/25 22:49:22;;;;;;;9.10;7.30;;;;;;;1.93;100.00;98787.64;1676379;84;20895;-62
2021/11/25 22:51:57;;;;;;;8.55;7.33;;;;;;;1.92;100.00;98795.00;1675351;84;21015;-62
2021/11/25 22:54:52;;;;;;;10.20;7.47;;;;;;;1.92;100.00;98800.62;1675725;84;20955;-63
2021/11/25 22:57:23;;;;;;;8.65;7.22;;;;;;;1.94;100.00;98790.70;1676667;84;21047;-61
2021/11/25 22:59:53;;;;;;;9.25;7.80;;;;;;;1.96;100.00;98789.44;1669156;85;20964;-61
2021/11/25 23:02:23;;;;;;;11.40;7.62;;;;;;;1.95;100.00;98789.86;1680293;85;21012;-62
2021/11/25 23:04:57;;;;;;;10.00;7.47;;;;;;;1.96;100.00;98793.34;1691396;84;20947;-61
2021/11/25 23:07:27;;;;;;;8.28;7.10;;;;;;;1.97;100.00;98788.59;1690265;84;22200;-61
2021/11/25 23:10:01;;;;;;;10.15;7.70;;;;;;;1.98;100.00;98782.55;1670043;84;20940;-61
2021/11/25 23:12:29;;;;;;;9.48;7.30;;;;;;;1.97;100.00;98775.59;1695793;84;21462;-61
2021/11/25 23:14:59;;;;;;;9.63;7.60;;;;;;;1.91;100.00;98775.45;1696790;84;21418;-61
2021/11/25 23:17:43;;;;;;;10.35;7.95;;;;;;;1.83;100.00;98765.73;1667120;84;21467;-60
2021/11/25 23:20:18;;;;;;;10.23;8.20;;;;;;;1.81;100.00;98765.23;1691324;84;21881;-61
2021/11/25 23:22:50;;;;;;;26.40;8.53;;;;;;;1.80;100.00;98766.95;1661867;85;21522;-61
2021/11/25 23:25:25;;;;;;;9.03;7.10;;;;;;;1.80;100.00;98764.36;1678064;85;22328;-61
2021/11/25 23:27:59;;;;;;;10.13;7.70;;;;;;;1.81;100.00;98767.41;1668137;84;21428;-61
2021/11/25 23:30:32;;;;;;;8.10;7.12;;;;;;;1.82;100.00;98759.19;1670090;84;21468;-61
2021/11/25 23:33:07;;;;;;;10.98;8.35;;;;;;;1.80;100.00;98756.98;1654524;86;21299;-60
2021/11/25 23:35:40;;;;;;;9.33;8.15;;;;;;;1.78;100.00;98754.77;1656148;86;21459;-62
2021/11/25 23:38:14;;;;;;;10.00;8.08;;;;;;;1.75;100.00;98759.48;1664196;86;20979;-62
2021/11/25 23:40:40;;;;;;;9.13;7.90;;;;;;;1.75;100.00;98762.08;1659776;84;20951;-63
2021/11/25 23:43:11;;;;;;;10.93;7.80;;;;;;;1.76;100.00;98756.45;1664615;84;20952;-62
2021/11/25 23:45:53;;;;;;;10.60;8.03;;;;;;;1.75;100.00;98754.28;1658399;86;21452;-61
2021/11/25 23:48:26;;;;;;;11.43;8.80;;;;;;;1.74;100.00;98742.13;1653950;86;21306;-61
2021/11/25 23:51:08;;;;;;;11.05;8.38;;;;;;;1.73;100.00;98746.87;1674476;84;21471;-63
2021/11/25 23:53:25;;;;;;;11.83;8.38;;;;;;;1.72;100.00;98739.91;1664572;86;20975;-64
2021/11/25 23:56:01;;;;;;;10.48;8.20;;;;;;;1.72;100.00;98740.33;1663692;85;20940;-61
2021/11/25 23:58:31;;;;;;;13.48;8.15;;;;;;;1.73;100.00;98737.77;1679169;84;21148;-62
